Aérodrome :
LOGIN :

S'inscrire | Disclaimer

   EN    FR    IT 

 










Légende :    VFR   VFR Marginal   IFR   IFR Intensif   IFR Très Intensif
Visi : 
Plafond : 
>= 8 km
>= 3000ft
5 à 8 km
1000 à 3000 ft
1500m à 5 km
500 à 1000 ft
800 à 1500m
200 à 500 ft
< 800m
< 200 ft
Symboles :   Orages  Brouillard  Fortes neiges  Fortes précipitations  Vent > 20 kt
SIGMETs :   Divers  Orages  Givrage  Turbulence  Onde Orograph.  Cendres Volcan.






- Altitude de l'aérodrome : 699 ft
- Code IATA : PAD


EDLP - Paderborn Lippstadt

DERNIER METAR :
  • 190350Z 27006KT 230V310 6000 -RA OVC004 02/01 Q1030

METARs EXPIRÉS :
  • 190320Z 26007KT 230V300 8000 -RA OVC004 02/01 Q1030
  • 190250Z 27005KT 230V350 9000 -RA OVC004 02/01 Q1029
  • 190220Z 27005KT 230V320 9999 -RA BKN004 OVC008 02/01 Q1029
  • 190150Z 28006KT 220V330 9999 -RA OVC004 02/01 Q1029
  • 190120Z 26005KT 230V310 9999 -RA OVC004 02/01 Q1028

TAF TAF EDLP
Valide du 19 à 00h jusqu'au 20 à 00h UTC


182300Z 1900/1924 29006KT 9999 OVC008
TEMPO 1900/1912 3000 BR BKN004
BECMG 1912/1915 BKN012
BECMG 1915/1918 BKN020
BECMG 1921/1924 BKN012



MET'MAP, la Météo Aéronautique d'un coup d'oeil ! - Copyright ORBIFLY Décembre 2007 - Disclaimer

ORBIFLY MET'MAP TEAM :

Programmation & Développement : Alexandra Zaïnal
Sur une idée originale de : Baudouin d'Aumeries
Assistance à la programmation : Marc-Olivier Méhu
Soutien technique & logistique : Manuel Goepfert

Contact : metmap@orbifly.com




SOURCES & CREDITS :

   NOAA